createdAt,value
2023-02-11T00:03:57.385Z,18.42
2023-02-11T00:08:09.811Z,40.78
2023-02-11T00:12:22.972Z,44.47
2023-02-11T00:16:37.943Z,23.95
2023-02-11T00:20:50.472Z,19.50
2023-02-11T00:25:03.133Z,17.83
2023-02-11T00:29:15.616Z,24.65
2023-02-11T00:33:27.847Z,28.23
2023-02-11T00:37:40.134Z,49.80
2023-02-11T00:41:52.530Z,20.98
2023-02-11T00:46:05.163Z,20.48
2023-02-11T00:50:18.555Z,53.42
2023-02-11T00:54:30.978Z,19.35
2023-02-11T00:58:43.270Z,19.88
2023-02-11T01:02:57.154Z,16.83
2023-02-11T01:07:09.653Z,30.10
2023-02-11T01:11:24.177Z,51.47
2023-02-11T01:15:36.740Z,24.63
2023-02-11T01:19:50.845Z,19.73
2023-02-11T01:24:03.358Z,43.55
2023-02-11T01:28:34.053Z,33.63
2023-02-11T01:32:46.460Z,20.00
2023-02-11T01:36:59.860Z,26.85
2023-02-11T01:41:15.264Z,41.28
2023-02-11T01:45:47.268Z,17.25
2023-02-11T01:50:02.823Z,20.73
2023-02-11T01:54:39.082Z,33.05
2023-02-11T01:58:53.561Z,48.33
2023-02-11T02:03:11.464Z,21.80
2023-02-11T02:07:39.895Z,17.90
2023-02-11T02:11:52.966Z,16.38
2023-02-11T02:16:09.960Z,42.15
2023-02-11T02:20:52.721Z,19.60
2023-02-11T02:25:29.502Z,13.52
2023-02-11T02:30:23.866Z,19.65
2023-02-11T02:34:50.254Z,13.80
2023-02-11T02:39:18.690Z,22.83
2023-02-11T02:43:31.661Z,15.35
2023-02-11T02:47:44.114Z,32.03
2023-02-11T02:52:15.122Z,16.83
2023-02-11T02:56:55.826Z,22.77
2023-02-11T03:01:40.353Z,40.20
2023-02-11T03:05:59.346Z,21.17
2023-02-11T03:10:17.840Z,35.42
2023-02-11T03:14:32.653Z,15.75
2023-02-11T03:18:50.848Z,45.85
2023-02-11T03:23:11.574Z,40.08
2023-02-11T03:27:35.158Z,27.65
2023-02-11T03:32:08.981Z,14.65
2023-02-11T03:36:29.321Z,14.27
2023-02-11T03:40:45.892Z,9.30
2023-02-11T03:45:05.293Z,17.90
2023-02-11T03:49:21.793Z,13.57
2023-02-11T03:53:37.325Z,10.02
2023-02-11T03:57:49.834Z,19.08
2023-02-11T04:02:02.088Z,32.70
2023-02-11T04:06:14.528Z,19.00
2023-02-11T04:10:26.906Z,21.70
2023-02-11T04:14:39.296Z,17.80
2023-02-11T04:18:51.606Z,10.40
2023-02-11T04:23:03.982Z,7.60
2023-02-11T04:27:16.455Z,16.75
2023-02-11T04:31:29.013Z,10.68
2023-02-11T04:35:41.489Z,15.05
2023-02-11T04:39:53.798Z,13.20
2023-02-11T04:44:06.437Z,12.32
2023-02-11T04:48:18.805Z,12.00
2023-02-11T04:52:31.204Z,12.68
2023-02-11T04:56:43.802Z,20.30
2023-02-11T05:00:56.264Z,17.55
2023-02-11T05:05:09.013Z,13.13
2023-02-11T05:09:21.289Z,9.82
2023-02-11T05:13:33.795Z,10.35
2023-02-11T05:17:46.264Z,14.50
2023-02-11T05:22:03.103Z,17.73
2023-02-11T05:26:16.097Z,8.57
2023-02-11T05:30:28.572Z,10.27
2023-02-11T05:34:41.003Z,13.57
2023-02-11T05:38:53.384Z,15.48
2023-02-11T05:43:05.689Z,28.80
2023-02-11T05:47:18.192Z,11.68
2023-02-11T05:51:30.592Z,17.17
2023-02-11T05:55:43.063Z,9.45
2023-02-11T05:59:55.479Z,8.32
2023-02-11T06:04:07.847Z,9.60
2023-02-11T06:08:20.043Z,20.73
2023-02-11T06:12:32.344Z,14.93
2023-02-11T06:16:44.781Z,13.05
2023-02-11T06:20:57.310Z,14.90
2023-02-11T06:25:11.323Z,14.50
2023-02-11T06:29:23.803Z,14.50
2023-02-11T06:33:36.564Z,28.42
2023-02-11T06:37:50.037Z,17.67
2023-02-11T06:42:02.413Z,30.30
2023-02-11T06:46:14.877Z,26.20
2023-02-11T06:50:27.265Z,32.15
2023-02-11T06:54:39.602Z,81.70
2023-02-11T06:58:58.256Z,32.35
2023-02-11T07:03:10.672Z,28.98
2023-02-11T07:07:23.101Z,30.25
2023-02-11T07:11:35.462Z,28.83
2023-02-11T07:15:48.130Z,43.00
2023-02-11T07:20:00.563Z,46.72
2023-02-11T07:24:13.610Z,76.95
2023-02-11T07:28:25.995Z,30.00
2023-02-11T07:32:44.329Z,29.10
2023-02-11T07:36:57.708Z,31.17
2023-02-11T07:41:13.732Z,37.15
2023-02-11T07:45:27.706Z,44.58
2023-02-11T07:49:40.424Z,46.03
2023-02-11T07:53:53.722Z,95.60
2023-02-11T07:58:06.855Z,52.45
2023-02-11T08:02:20.888Z,138.45
2023-02-11T08:06:35.361Z,118.82
2023-02-11T08:10:50.496Z,47.20
2023-02-11T08:15:03.208Z,80.53
2023-02-11T08:19:16.981Z,46.10
2023-02-11T08:23:29.493Z,64.22
2023-02-11T08:27:41.755Z,49.03
2023-02-11T08:31:54.289Z,41.00
2023-02-11T08:36:19.632Z,85.63
2023-02-11T08:40:31.992Z,75.57
2023-02-11T08:44:44.677Z,82.85
2023-02-11T08:48:57.175Z,71.50
2023-02-11T08:53:09.902Z,67.13
2023-02-11T08:57:22.240Z,59.00
2023-02-11T09:01:34.890Z,55.08
2023-02-11T09:05:50.430Z,51.95
2023-02-11T09:10:03.155Z,49.85
2023-02-11T09:14:24.494Z,55.10
2023-02-11T09:18:36.856Z,48.25
2023-02-11T09:22:49.421Z,40.83
2023-02-11T09:27:01.659Z,39.22
2023-02-11T09:31:17.008Z,36.30
2023-02-11T09:35:29.593Z,39.10
2023-02-11T09:39:41.926Z,40.47
2023-02-11T09:43:57.702Z,24.30
2023-02-11T09:48:19.240Z,27.63
2023-02-11T09:52:49.349Z,32.22
2023-02-11T09:57:01.927Z,29.10
2023-02-11T10:01:59.028Z,36.83
2023-02-11T10:06:23.297Z,29.50
2023-02-11T10:10:59.025Z,24.02
2023-02-11T10:15:30.269Z,24.10
2023-02-11T10:20:00.545Z,16.00
2023-02-11T10:24:16.222Z,20.30
2023-02-11T10:28:34.520Z,18.13
2023-02-11T10:33:02.818Z,20.40
2023-02-11T10:37:15.476Z,14.88
2023-02-11T10:41:34.211Z,12.52
2023-02-11T10:45:51.831Z,12.75
2023-02-11T10:50:25.902Z,14.98
2023-02-11T10:54:39.287Z,16.25
2023-02-11T10:59:01.868Z,14.95
2023-02-11T11:03:25.712Z,13.85
2023-02-11T11:07:38.306Z,16.25
2023-02-11T11:11:54.193Z,15.13
2023-02-11T11:16:09.721Z,13.73
2023-02-11T11:20:30.094Z,14.18
2023-02-11T11:24:46.975Z,9.32
2023-02-11T11:29:07.454Z,13.20
2023-02-11T11:33:33.451Z,11.75
2023-02-11T11:37:46.399Z,11.60
2023-02-11T11:42:03.480Z,11.88
2023-02-11T11:46:25.371Z,14.82
2023-02-11T11:50:42.768Z,10.75
2023-02-11T11:55:13.248Z,11.10
2023-02-11T11:59:25.636Z,9.88
2023-02-11T12:04:00.160Z,11.45
2023-02-11T12:08:38.101Z,10.35
2023-02-11T12:12:59.777Z,14.60
2023-02-11T12:17:17.924Z,11.15
2023-02-11T12:21:50.565Z,14.18
2023-02-11T12:26:25.655Z,11.45
2023-02-11T12:31:21.422Z,14.18
2023-02-11T12:35:55.577Z,19.70
2023-02-11T12:40:28.942Z,16.00
2023-02-11T12:44:52.011Z,14.75
2023-02-11T12:49:11.053Z,15.82
2023-02-11T12:53:23.432Z,12.00
2023-02-11T12:57:38.774Z,14.02
2023-02-11T13:01:56.395Z,14.20
2023-02-11T13:06:15.044Z,13.93
2023-02-11T13:10:41.635Z,13.02
2023-02-11T13:15:00.323Z,11.85
2023-02-11T13:19:26.913Z,18.13
2023-02-11T13:23:58.177Z,15.38
2023-02-11T13:37:39.313Z,13.77
2023-02-11T13:42:03.685Z,18.63
2023-02-11T13:46:16.377Z,18.88
2023-02-11T13:50:30.736Z,17.80
2023-02-11T13:54:50.177Z,11.63
2023-02-11T13:59:05.781Z,14.85
2023-02-11T14:03:39.191Z,13.32
2023-02-11T14:08:28.297Z,10.82
2023-02-11T14:12:40.948Z,11.40
2023-02-11T14:17:02.217Z,16.02
2023-02-11T14:21:24.768Z,13.38
2023-02-11T14:25:41.487Z,11.40
2023-02-11T14:30:44.763Z,15.88
2023-02-11T14:35:20.873Z,15.85
2023-02-11T14:39:58.047Z,16.05
2023-02-11T14:44:21.628Z,16.73
2023-02-11T14:48:36.625Z,19.38
2023-02-11T14:52:49.785Z,13.10
2023-02-11T14:57:17.722Z,12.75
2023-02-11T15:01:35.636Z,22.40
2023-02-11T15:05:55.810Z,21.77
2023-02-11T15:10:18.915Z,16.83
2023-02-11T15:14:34.189Z,19.08
2023-02-11T15:18:52.044Z,11.93
2023-02-11T15:23:09.315Z,12.30
2023-02-11T15:27:23.104Z,18.15
2023-02-11T15:31:37.856Z,15.73
2023-02-11T15:35:51.184Z,17.38
2023-02-11T15:40:19.327Z,18.13
2023-02-11T15:44:34.071Z,17.33
2023-02-11T15:48:51.115Z,24.33
2023-02-11T15:53:29.341Z,33.30
2023-02-11T15:57:51.329Z,25.55
2023-02-11T16:02:18.587Z,25.58
2023-02-11T16:06:42.979Z,27.60
2023-02-11T16:11:05.369Z,29.48
2023-02-11T16:15:38.576Z,23.23
2023-02-11T16:19:53.079Z,24.65
2023-02-11T16:24:21.424Z,31.60
2023-02-11T16:28:37.387Z,29.37
2023-02-11T16:32:49.938Z,31.13
2023-02-11T16:37:05.224Z,33.17
2023-02-11T16:41:17.486Z,36.80
2023-02-11T16:45:29.850Z,39.13
2023-02-11T16:49:43.141Z,32.35
2023-02-11T16:53:55.487Z,34.47
2023-02-11T16:58:10.112Z,43.47
2023-02-11T17:02:28.486Z,67.28
2023-02-11T17:06:42.761Z,68.43
2023-02-11T17:10:56.046Z,71.90
2023-02-11T17:15:08.919Z,80.63
2023-02-11T17:19:22.069Z,92.32
2023-02-11T17:23:34.494Z,80.65
2023-02-11T17:27:51.225Z,93.50
2023-02-11T17:32:06.625Z,102.67
2023-02-11T17:36:19.151Z,83.57
2023-02-11T17:40:33.220Z,74.38
2023-02-11T17:44:46.562Z,81.22
2023-02-11T17:48:59.978Z,69.07
2023-02-11T17:53:12.456Z,77.55
2023-02-11T17:57:24.830Z,87.00
2023-02-11T18:01:39.394Z,90.03
2023-02-11T18:05:52.017Z,86.60
2023-02-11T18:10:07.601Z,86.40
2023-02-11T18:14:21.498Z,36.40
2023-02-11T18:18:33.979Z,28.50
2023-02-11T18:22:46.518Z,52.35
2023-02-11T18:26:59.036Z,59.40
2023-02-11T18:31:12.033Z,52.30
2023-02-11T18:35:27.558Z,57.17
2023-02-11T18:39:40.670Z,55.58
2023-02-11T18:43:53.516Z,52.33
2023-02-11T18:48:07.298Z,50.38
2023-02-11T18:52:19.855Z,55.50
2023-02-11T18:56:33.700Z,45.28
2023-02-11T19:00:50.067Z,28.67
2023-02-11T19:05:06.207Z,49.75
2023-02-11T19:09:20.036Z,47.47
2023-02-11T19:13:32.546Z,22.17
2023-02-11T19:17:44.869Z,23.70
2023-02-11T19:21:58.520Z,36.47
2023-02-11T19:26:10.844Z,42.35
2023-02-11T19:30:23.238Z,31.73
2023-02-11T19:34:41.526Z,18.98
2023-02-11T19:38:54.359Z,31.42
2023-02-11T19:43:06.735Z,26.98
2023-02-11T19:47:19.806Z,15.25
2023-02-11T19:51:39.504Z,18.40
2023-02-11T19:55:52.301Z,29.17
2023-02-11T20:00:05.816Z,31.98
2023-02-11T20:04:25.578Z,15.95
2023-02-11T20:08:38.069Z,17.25
2023-02-11T20:12:50.701Z,28.75
2023-02-11T20:17:04.250Z,28.63
2023-02-11T20:21:20.069Z,27.05
2023-02-11T20:25:32.451Z,28.58
2023-02-11T20:29:45.004Z,25.38
2023-02-11T20:34:00.241Z,24.20
2023-02-11T20:38:12.543Z,24.55
2023-02-11T20:42:25.573Z,26.45
2023-02-11T20:46:40.550Z,10.40
2023-02-11T20:50:54.455Z,29.00
2023-02-11T20:55:06.878Z,25.58
2023-02-11T20:59:19.832Z,12.65
2023-02-11T21:03:32.308Z,25.17
2023-02-11T21:07:44.676Z,22.33
2023-02-11T21:11:57.467Z,13.23
2023-02-11T21:16:14.130Z,12.65
2023-02-11T21:20:26.455Z,24.48
2023-02-11T21:24:39.020Z,25.88
2023-02-11T21:28:52.721Z,22.83
2023-02-11T21:33:05.643Z,20.05
2023-02-11T21:37:18.028Z,21.30
2023-02-11T21:41:30.706Z,16.92
2023-02-11T21:45:48.175Z,14.52
2023-02-11T21:50:00.534Z,32.97
2023-02-11T21:54:12.918Z,13.88
2023-02-11T21:58:25.240Z,11.52
2023-02-11T22:02:40.949Z,13.63
2023-02-11T22:06:53.466Z,11.40
2023-02-11T22:11:09.269Z,27.70
2023-02-11T22:15:22.295Z,23.27
2023-02-11T22:19:36.766Z,10.50
2023-02-11T22:23:52.006Z,9.20
2023-02-11T22:28:04.497Z,19.00
2023-02-11T22:32:18.597Z,9.75
2023-02-11T22:36:33.792Z,15.38
2023-02-11T22:40:46.149Z,12.55
2023-02-11T22:44:58.375Z,14.55
2023-02-11T22:49:13.371Z,12.23
2023-02-11T22:53:25.893Z,16.42
2023-02-11T22:57:38.276Z,13.30
2023-02-11T23:01:50.804Z,29.55
2023-02-11T23:06:03.887Z,52.42
2023-02-11T23:10:19.046Z,43.13
2023-02-11T23:14:32.039Z,23.80
2023-02-11T23:18:46.245Z,23.15
2023-02-11T23:22:58.710Z,14.73
2023-02-11T23:27:11.044Z,22.08
2023-02-11T23:31:29.979Z,27.35
2023-02-11T23:35:42.438Z,10.05
2023-02-11T23:39:54.845Z,9.52
2023-02-11T23:44:07.151Z,18.13
2023-02-11T23:48:19.725Z,17.15
2023-02-11T23:52:32.019Z,9.70
2023-02-11T23:56:44.309Z,8.82
